Time;durP1;ratioP1;P1;durP2;ratioP2;P2;SDS_P1;SDS_P2;PMS_P1;PMS_P2;Temp;Humidity;BMP_temperature;BMP_pressure;BME280_temperature;BME280_humidity;BME280_pressure;Samples;Min_cycle;Max_cycle;Signal;HPM_P1;HPM_P2
2022/10/06 00:02:05;;;;;;;;;;;11.80;65.90;;;;;;5022676;28;87316;-41
2022/10/06 00:04:30;;;;;;;;;;;11.80;65.90;;;;;;5022822;28;87110;-40
2022/10/06 00:06:56;;;;;;;;;;;11.80;65.90;;;;;;5025578;28;87383;-41
2022/10/06 00:09:21;;;;;;;;;;;11.80;66.00;;;;;;5022802;28;87062;-41
2022/10/06 00:11:47;;;;;;;;;;;11.80;65.90;;;;;;5023322;28;86983;-41
2022/10/06 00:14:12;;;;;;;;;;;11.80;66.00;;;;;;5022529;28;87269;-41
2022/10/06 00:16:38;;;;;;;;;;;11.70;66.00;;;;;;5021222;28;87193;-41
2022/10/06 00:19:03;;;;;;;;;;;11.70;66.00;;;;;;5022089;28;87930;-41
2022/10/06 00:21:29;;;;;;;;;;;11.80;66.00;;;;;;5022155;28;88053;-40
2022/10/06 00:23:55;;;;;;;;;;;11.80;66.10;;;;;;5022643;28;87237;-41
2022/10/06 00:26:20;;;;;;;;;;;11.80;66.10;;;;;;5022573;28;87240;-41
2022/10/06 00:28:46;;;;;;;;;;;11.70;66.00;;;;;;5025172;28;88866;-41
2022/10/06 00:31:12;;;;;;;;;;;11.70;66.00;;;;;;5022770;28;87557;-40
2022/10/06 00:33:37;;;;;;;;;;;11.70;65.90;;;;;;5022093;28;88197;-41
2022/10/06 00:36:03;;;;;;;;;;;11.70;66.00;;;;;;5022969;28;86489;-41
2022/10/06 00:38:28;;;;;;;;;;;11.70;65.90;;;;;;5022730;28;86986;-41
2022/10/06 00:40:54;;;;;;;;;;;11.70;65.90;;;;;;5021855;28;88152;-41
2022/10/06 00:43:35;;;;;;;;;;;11.70;66.00;;;;;;5021971;28;88057;-41
2022/10/06 00:46:00;;;;;;;;;;;11.70;65.90;;;;;;5022394;28;88357;-41
2022/10/06 00:48:26;;;;;;;;;;;11.70;65.90;;;;;;5022074;28;88353;-41
2022/10/06 00:50:53;;;;;;;;;;;11.70;66.00;;;;;;5025205;28;86952;-41
2022/10/06 00:53:19;;;;;;;;;;;11.70;65.90;;;;;;5021862;28;87264;-41
2022/10/06 00:55:44;;;;;;;;;;;11.60;65.90;;;;;;5022131;28;86877;-41
2022/10/06 00:58:10;;;;;;;;;;;11.60;66.00;;;;;;5022284;28;87202;-41
2022/10/06 01:00:35;;;;;;;;;;;11.60;65.90;;;;;;5022467;28;86316;-41
2022/10/06 01:03:04;;;;;;;;;;;11.60;65.90;;;;;;5022235;28;87098;-41
2022/10/06 01:05:31;;;;;;;;;;;11.60;65.80;;;;;;5022024;28;87017;-41
2022/10/06 01:07:57;;;;;;;;;;;11.60;66.00;;;;;;5021157;28;88985;-41
2022/10/06 01:10:23;;;;;;;;;;;11.60;65.80;;;;;;5025250;28;87277;-41
2022/10/06 01:12:50;;;;;;;;;;;11.60;65.80;;;;;;5021743;28;87987;-41
2022/10/06 01:15:16;;;;;;;;;;;11.50;65.80;;;;;;5024514;28;87064;-41
2022/10/06 01:17:45;;;;;;;;;;;11.50;65.90;;;;;;5025487;28;87536;-41
2022/10/06 01:20:12;;;;;;;;;;;11.50;65.90;;;;;;5024966;28;87977;-40
2022/10/06 01:22:40;;;;;;;;;;;11.50;65.70;;;;;;5025249;28;87460;-41
2022/10/06 01:25:06;;;;;;;;;;;11.50;65.80;;;;;;5025692;28;87088;-41
2022/10/06 01:27:33;;;;;;;;;;;11.50;65.80;;;;;;5024659;28;90610;-40
2022/10/06 01:29:59;;;;;;;;;;;11.50;65.80;;;;;;5025268;28;87044;-40
2022/10/06 01:32:26;;;;;;;;;;;11.50;65.80;;;;;;5027328;28;87964;-40
2022/10/06 01:34:51;;;;;;;;;;;11.50;65.90;;;;;;5025334;28;87174;-42
2022/10/06 01:37:17;;;;;;;;;;;11.40;65.80;;;;;;5025023;28;87532;-41
2022/10/06 01:39:43;;;;;;;;;;;11.40;65.90;;;;;;5024813;28;87213;-41
2022/10/06 01:42:09;;;;;;;;;;;11.40;65.70;;;;;;5025255;28;87108;-40
2022/10/06 01:44:34;;;;;;;;;;;11.40;65.80;;;;;;5025243;28;86834;-41
2022/10/06 01:47:00;;;;;;;;;;;11.40;65.70;;;;;;5024546;28;88205;-40
2022/10/06 01:49:26;;;;;;;;;;;11.40;65.80;;;;;;5025313;28;86358;-41
2022/10/06 01:51:51;;;;;;;;;;;11.40;65.80;;;;;;5025075;28;86868;-41
2022/10/06 01:54:16;;;;;;;;;;;11.30;65.70;;;;;;5027610;28;87895;-41
2022/10/06 01:56:42;;;;;;;;;;;11.40;65.70;;;;;;5024377;28;88052;-41
2022/10/06 01:59:07;;;;;;;;;;;11.40;65.70;;;;;;5024662;28;88050;-41
2022/10/06 02:01:34;;;;;;;;;;;11.40;65.70;;;;;;5024767;28;86970;-41
2022/10/06 02:04:00;;;;;;;;;;;11.30;65.80;;;;;;5024712;28;87426;-41
2022/10/06 02:06:25;;;;;;;;;;;11.30;65.80;;;;;;5024513;28;88005;-40
2022/10/06 02:08:51;;;;;;;;;;;11.30;65.70;;;;;;5024614;28;86962;-41
2022/10/06 02:11:17;;;;;;;;;;;11.30;65.80;;;;;;5024821;28;87596;-41
2022/10/06 02:13:43;;;;;;;;;;;11.30;65.80;;;;;;5024729;28;87323;-41
2022/10/06 02:16:08;;;;;;;;;;;11.20;65.70;;;;;;5027638;28;87086;-41
2022/10/06 02:18:34;;;;;;;;;;;11.30;65.70;;;;;;5024193;28;88000;-41
2022/10/06 02:21:00;;;;;;;;;;;11.30;65.70;;;;;;5023736;28;88141;-40
2022/10/06 02:23:26;;;;;;;;;;;11.30;65.80;;;;;;5024257;28;88055;-41
2022/10/06 02:26:01;;;;;;;;;;;11.20;65.60;;;;;;5022823;28;88121;-41
2022/10/06 02:28:27;;;;;;;;;;;11.20;65.60;;;;;;5023087;28;87017;-41
2022/10/06 02:30:54;;;;;;;;;;;11.20;65.60;;;;;;5024580;28;87229;-40
2022/10/06 02:33:19;;;;;;;;;;;11.20;65.60;;;;;;5024128;28;88113;-41
2022/10/06 02:35:45;;;;;;;;;;;11.20;65.60;;;;;;5024149;28;86931;-41
2022/10/06 02:38:11;;;;;;;;;;;11.20;65.70;;;;;;5027269;28;87374;-41
2022/10/06 02:40:37;;;;;;;;;;;11.10;65.60;;;;;;5024383;28;87232;-41
2022/10/06 02:43:02;;;;;;;;;;;11.10;65.70;;;;;;5024248;28;87017;-41
2022/10/06 02:45:29;;;;;;;;;;;11.10;65.60;;;;;;5023402;28;89087;-40
2022/10/06 02:47:55;;;;;;;;;;;11.20;65.60;;;;;;5024414;28;86837;-40
2022/10/06 02:50:21;;;;;;;;;;;11.10;65.50;;;;;;5023770;28;87232;-41
2022/10/06 02:52:46;;;;;;;;;;;11.10;65.70;;;;;;5023808;28;88147;-41
2022/10/06 02:55:12;;;;;;;;;;;11.10;65.70;;;;;;5024166;28;87569;-41
2022/10/06 02:57:38;;;;;;;;;;;11.10;65.70;;;;;;5026476;28;87311;-41
2022/10/06 03:00:06;;;;;;;;;;;11.10;65.60;;;;;;5024048;28;87140;-40
2022/10/06 03:02:32;;;;;;;;;;;11.10;65.60;;;;;;5024107;28;87360;-41
2022/10/06 03:04:58;;;;;;;;;;;11.10;65.60;;;;;;5023641;28;87270;-41
2022/10/06 03:07:23;;;;;;;;;;;11.10;65.60;;;;;;5023785;28;86974;-40
2022/10/06 03:09:49;;;;;;;;;;;11.00;65.60;;;;;;5023300;28;87929;-40
2022/10/06 03:12:14;;;;;;;;;;;11.00;65.70;;;;;;5023581;28;88096;-41
2022/10/06 03:14:40;;;;;;;;;;;11.00;65.80;;;;;;5023531;28;86981;-41
2022/10/06 03:17:08;;;;;;;;;;;11.00;65.80;;;;;;5023762;28;87623;-41
2022/10/06 03:19:33;;;;;;;;;;;11.00;65.70;;;;;;5026129;28;88016;-41
2022/10/06 03:21:59;;;;;;;;;;;11.00;65.70;;;;;;5023250;28;87653;-41
2022/10/06 03:24:24;;;;;;;;;;;11.00;65.60;;;;;;5023238;28;87309;-41
2022/10/06 03:26:50;;;;;;;;;;;10.90;65.60;;;;;;5024152;28;86502;-40
2022/10/06 03:29:15;;;;;;;;;;;10.90;65.60;;;;;;5023582;28;87183;-41
2022/10/06 03:31:42;;;;;;;;;;;10.90;65.60;;;;;;5023105;28;87971;-41
2022/10/06 03:34:07;;;;;;;;;;;10.90;65.70;;;;;;5022676;28;88561;-41
2022/10/06 03:36:33;;;;;;;;;;;10.90;65.70;;;;;;5023005;28;88541;-41
2022/10/06 03:38:59;;;;;;;;;;;10.90;65.60;;;;;;5023124;28;88237;-40
2022/10/06 03:41:25;;;;;;;;;;;10.80;65.60;;;;;;5026373;28;87116;-41
2022/10/06 03:43:52;;;;;;;;;;;10.90;65.70;;;;;;5022739;28;86856;-41
2022/10/06 03:46:19;;;;;;;;;;;10.80;65.60;;;;;;5023149;28;87089;-41
2022/10/06 03:48:45;;;;;;;;;;;10.80;65.60;;;;;;5023078;28;87427;-41
2022/10/06 03:51:11;;;;;;;;;;;10.80;65.50;;;;;;5022859;28;87593;-41
2022/10/06 03:53:37;;;;;;;;;;;10.80;65.70;;;;;;5023175;28;87077;-40
2022/10/06 03:56:04;;;;;;;;;;;10.80;65.60;;;;;;5023339;28;87473;-40
2022/10/06 03:58:30;;;;;;;;;;;10.80;65.60;;;;;;5021971;28;88602;-41
2022/10/06 04:00:59;;;;;;;;;;;10.80;65.70;;;;;;5023104;28;87476;-41
2022/10/06 04:03:25;;;;;;;;;;;10.80;65.60;;;;;;5025450;28;87359;-41
2022/10/06 04:05:52;;;;;;;;;;;10.80;65.60;;;;;;5022488;28;87088;-41
2022/10/06 04:08:17;;;;;;;;;;;10.80;65.50;;;;;;5023044;28;87258;-41
2022/10/06 04:10:43;;;;;;;;;;;10.70;65.60;;;;;;5022442;28;87906;-40
2022/10/06 04:13:08;;;;;;;;;;;10.80;65.60;;;;;;5023020;28;87102;-41
2022/10/06 04:15:34;;;;;;;;;;;10.80;65.50;;;;;;5023448;28;86562;-40
2022/10/06 04:17:59;;;;;;;;;;;10.70;65.50;;;;;;5022546;28;88084;-41
2022/10/06 04:20:25;;;;;;;;;;;10.70;65.40;;;;;;5022387;28;87104;-41
2022/10/06 04:22:50;;;;;;;;;;;10.70;65.50;;;;;;5022394;28;89095;-41
2022/10/06 04:25:16;;;;;;;;;;;10.70;65.50;;;;;;5025259;28;88053;-41
2022/10/06 04:27:42;;;;;;;;;;;10.70;65.50;;;;;;5022719;28;87374;-41
2022/10/06 04:30:07;;;;;;;;;;;10.70;65.50;;;;;;5022213;28;87291;-41
2022/10/06 04:32:33;;;;;;;;;;;10.60;65.40;;;;;;5022657;28;87128;-41
2022/10/06 04:34:58;;;;;;;;;;;10.70;65.50;;;;;;5022692;28;87523;-41
2022/10/06 04:37:24;;;;;;;;;;;10.60;65.50;;;;;;5022172;28;88197;-41
2022/10/06 04:39:49;;;;;;;;;;;10.60;65.50;;;;;;5023013;28;86375;-41
2022/10/06 04:42:15;;;;;;;;;;;10.60;65.50;;;;;;5022396;28;86967;-41
2022/10/06 04:44:40;;;;;;;;;;;10.60;65.50;;;;;;5022050;28;88088;-41
2022/10/06 04:47:06;;;;;;;;;;;10.60;65.50;;;;;;5024824;28;88029;-41
2022/10/06 04:49:31;;;;;;;;;;;10.60;65.50;;;;;;5022929;28;88075;-40
2022/10/06 04:51:57;;;;;;;;;;;10.60;65.50;;;;;;5025953;28;87216;-41
2022/10/06 04:54:22;;;;;;;;;;;10.50;65.50;;;;;;5026193;28;86843;-40
2022/10/06 04:56:48;;;;;;;;;;;10.50;65.60;;;;;;5025425;28;87519;-41
2022/10/06 04:59:14;;;;;;;;;;;10.50;65.60;;;;;;5025956;28;87006;-41
2022/10/06 05:01:39;;;;;;;;;;;10.50;65.50;;;;;;5025851;28;86939;-41
2022/10/06 05:04:05;;;;;;;;;;;10.50;65.50;;;;;;5026157;28;87588;-40
2022/10/06 05:06:35;;;;;;;;;;;10.50;65.50;;;;;;5028564;28;87141;-40
2022/10/06 05:09:05;;;;;;;;;;;10.50;65.40;;;;;;5025344;28;88012;-40
2022/10/06 05:11:32;;;;;;;;;;;10.50;65.60;;;;;;5024871;28;88055;-41
2022/10/06 05:13:58;;;;;;;;;;;10.50;65.60;;;;;;5025389;28;88354;-41
2022/10/06 05:16:26;;;;;;;;;;;10.50;65.60;;;;;;5025031;28;87051;-41
2022/10/06 05:18:51;;;;;;;;;;;10.50;65.60;;;;;;5025253;28;87203;-41
2022/10/06 05:21:21;;;;;;;;;;;10.50;65.60;;;;;;5025375;28;87023;-41
2022/10/06 05:23:46;;;;;;;;;;;10.50;65.60;;;;;;5024879;28;87996;-40
2022/10/06 05:26:14;;;;;;;;;;;10.40;65.50;;;;;;5025456;28;86965;-41
2022/10/06 05:28:39;;;;;;;;;;;10.40;65.40;;;;;;5028543;28;87411;-41
2022/10/06 05:31:28;;;;;;;;;;;10.40;65.50;;;;;;5025349;28;87087;-41
2022/10/06 05:33:54;;;;;;;;;;;10.40;65.60;;;;;;5025357;28;87291;-41
2022/10/06 05:36:21;;;;;;;;;;;10.40;65.50;;;;;;5024231;28;89237;-40
2022/10/06 05:38:46;;;;;;;;;;;10.40;65.60;;;;;;5025095;28;87096;-41
2022/10/06 05:41:14;;;;;;;;;;;10.40;65.60;;;;;;5025322;28;87798;-41
2022/10/06 05:43:39;;;;;;;;;;;10.40;65.50;;;;;;5024716;28;87992;-41
2022/10/06 05:46:23;;;;;;;;;;;10.40;65.50;;;;;;5024968;28;87681;-41
2022/10/06 05:48:54;;;;;;;;;;;10.40;65.60;;;;;;5025145;28;87401;-40
2022/10/06 05:51:20;;;;;;;;;;;10.30;65.50;;;;;;5027608;28;88187;-41
2022/10/06 05:53:46;;;;;;;;;;;10.30;65.60;;;;;;5025526;28;87430;-40
2022/10/06 05:56:13;;;;;;;;;;;10.30;65.70;;;;;;5024529;28;87259;-41
2022/10/06 05:58:40;;;;;;;;;;;10.30;65.70;;;;;;5024669;28;87040;-41
2022/10/06 06:01:09;;;;;;;;;;;10.30;65.70;;;;;;5024008;28;88058;-40
2022/10/06 06:03:34;;;;;;;;;;;10.30;65.70;;;;;;5024445;28;88044;-40
2022/10/06 06:06:00;;;;;;;;;;;10.30;65.80;;;;;;5024899;28;87013;-41
2022/10/06 06:08:25;;;;;;;;;;;10.30;65.80;;;;;;5024785;28;87433;-40
2022/10/06 06:10:51;;;;;;;;;;;10.30;65.70;;;;;;5024422;28;88198;-41
2022/10/06 06:13:22;;;;;;;;;;;10.30;65.80;;;;;;5027373;28;87075;-40
2022/10/06 06:16:00;;;;;;;;;;;10.30;65.80;;;;;;5024127;28;88411;-41
2022/10/06 06:18:26;;;;;;;;;;;10.30;65.70;;;;;;5024954;28;86322;-41
2022/10/06 06:20:56;;;;;;;;;;;10.30;65.70;;;;;;5024495;28;86967;-41
2022/10/06 06:23:21;;;;;;;;;;;10.30;65.80;;;;;;5024165;28;87224;-41
2022/10/06 06:26:00;;;;;;;;;;;10.30;65.80;;;;;;5023782;28;88631;-41
2022/10/06 06:28:27;;;;;;;;;;;10.20;65.90;;;;;;5022978;28;91566;-40
2022/10/06 06:31:06;;;;;;;;;;;10.30;65.90;;;;;;5023977;28;88077;-40
2022/10/06 06:33:33;;;;;;;;;;;10.30;65.90;;;;;;5024269;28;87044;-41
2022/10/06 06:36:02;;;;;;;;;;;10.20;65.90;;;;;;5026994;28;87433;-41
2022/10/06 06:38:28;;;;;;;;;;;10.30;66.00;;;;;;5023932;28;87162;-40
2022/10/06 06:40:54;;;;;;;;;;;10.20;65.90;;;;;;5024470;28;87446;-40
2022/10/06 06:43:19;;;;;;;;;;;10.20;65.90;;;;;;5024547;28;87291;-41
2022/10/06 06:45:45;;;;;;;;;;;10.30;66.00;;;;;;5024116;28;87132;-41
2022/10/06 06:48:15;;;;;;;;;;;10.20;66.10;;;;;;5024374;28;87428;-40
2022/10/06 06:50:41;;;;;;;;;;;10.20;66.10;;;;;;5022920;28;88817;-41
2022/10/06 06:53:06;;;;;;;;;;;10.20;66.10;;;;;;5023672;28;88220;-41
2022/10/06 06:55:32;;;;;;;;;;;10.20;66.10;;;;;;5024076;28;87729;-40
2022/10/06 06:57:57;;;;;;;;;;;10.20;66.20;;;;;;5026547;28;88158;-41
2022/10/06 07:00:23;;;;;;;;;;;10.20;66.20;;;;;;5023989;28;87382;-41
2022/10/06 07:02:54;;;;;;;;;;;10.20;66.20;;;;;;5023632;28;87962;-41
2022/10/06 07:05:21;;;;;;;;;;;10.20;66.30;;;;;;5023973;28;86944;-40
2022/10/06 07:07:46;;;;;;;;;;;10.20;66.30;;;;;;5024045;28;87360;-41
2022/10/06 07:10:12;;;;;;;;;;;10.20;66.30;;;;;;5023545;28;88142;-40
2022/10/06 07:12:37;;;;;;;;;;;10.20;66.40;;;;;;5023033;28;86910;-40
2022/10/06 07:26:01;;;;;;;;;;;10.20;66.60;;;;;;5023836;28;87050;-41
2022/10/06 07:28:29;;;;;;;;;;;10.20;66.60;;;;;;5023466;28;87260;-41
2022/10/06 07:30:55;;;;;;;;;;;10.10;66.60;;;;;;5023065;28;87970;-41
2022/10/06 07:33:20;;;;;;;;;;;10.20;66.60;;;;;;5023837;28;86358;-40
2022/10/06 07:35:46;;;;;;;;;;;10.10;66.80;;;;;;5023496;28;86974;-41
2022/10/06 07:38:12;;;;;;;;;;;10.10;66.70;;;;;;5022902;28;88124;-41
2022/10/06 07:40:37;;;;;;;;;;;10.20;66.80;;;;;;5025575;28;88058;-40
2022/10/06 07:43:03;;;;;;;;;;;10.10;66.90;;;;;;5022695;28;87931;-41
2022/10/06 07:45:37;;;;;;;;;;;10.10;67.00;;;;;;5023257;28;87093;-41
2022/10/06 07:48:07;;;;;;;;;;;10.10;67.00;;;;;;5023314;28;87163;-40
2022/10/06 07:50:33;;;;;;;;;;;10.10;66.80;;;;;;5022071;28;89673;-41
2022/10/06 07:53:06;;;;;;;;;;;10.10;66.90;;;;;;5023121;28;87216;-41
2022/10/06 07:55:32;;;;;;;;;;;10.20;66.80;;;;;;5023086;28;87682;-41
2022/10/06 07:57:57;;;;;;;;;;;10.20;66.90;;;;;;5022526;28;87293;-40
2022/10/06 08:00:25;;;;;;;;;;;10.20;66.90;;;;;;5022499;28;87138;-41
2022/10/06 08:02:53;;;;;;;;;;;10.20;66.80;;;;;;5024988;28;87518;-41
2022/10/06 08:05:19;;;;;;;;;;;10.20;66.80;;;;;;5021564;28;88135;-40
2022/10/06 08:07:45;;;;;;;;;;;10.20;66.80;;;;;;5022379;28;88413;-41
2022/10/06 08:10:10;;;;;;;;;;;10.20;67.00;;;;;;5022070;28;87225;-41
2022/10/06 08:12:36;;;;;;;;;;;10.20;67.10;;;;;;5022148;28;87165;-40
2022/10/06 08:15:10;;;;;;;;;;;10.20;67.10;;;;;;5022921;28;87295;-40
2022/10/06 08:17:36;;;;;;;;;;;10.20;67.30;;;;;;5022789;28;87792;-41
2022/10/06 08:20:03;;;;;;;;;;;10.20;67.10;;;;;;5022605;28;87102;-40
2022/10/06 08:22:28;;;;;;;;;;;10.20;67.20;;;;;;5023131;28;87390;-41
2022/10/06 08:24:57;;;;;;;;;;;10.20;67.20;;;;;;5023823;28;88158;-41
2022/10/06 08:27:33;;;;;;;;;;;10.20;67.30;;;;;;5022872;28;87482;-41
2022/10/06 08:29:58;;;;;;;;;;;10.30;67.40;;;;;;5021749;28;88910;-41
2022/10/06 08:32:24;;;;;;;;;;;10.30;67.40;;;;;;5022623;28;87080;-41
2022/10/06 08:34:49;;;;;;;;;;;10.30;67.40;;;;;;5022614;28;87030;-41
2022/10/06 08:37:15;;;;;;;;;;;10.30;67.10;;;;;;5021973;28;88201;-41
2022/10/06 08:39:41;;;;;;;;;;;10.30;67.20;;;;;;5022403;28;87225;-40
2022/10/06 08:42:17;;;;;;;;;;;10.30;67.30;;;;;;5022790;28;88106;-41
2022/10/06 08:44:47;;;;;;;;;;;10.30;67.40;;;;;;5021881;28;88258;-41
2022/10/06 08:47:17;;;;;;;;;;;10.30;67.20;;;;;;5025713;28;86402;-41
2022/10/06 08:49:44;;;;;;;;;;;10.30;67.20;;;;;;5021397;28;88108;-41
2022/10/06 08:52:22;;;;;;;;;;;10.40;67.20;;;;;;5022046;28;87500;-40
2022/10/06 08:55:06;;;;;;;;;;;10.40;67.20;;;;;;5021739;28;87862;-41
2022/10/06 08:57:40;;;;;;;;;;;10.40;67.20;;;;;;5021864;28;87548;-40
2022/10/06 09:00:13;;;;;;;;;;;10.40;67.20;;;;;;5022197;28;87141;-41
2022/10/06 09:02:44;;;;;;;;;;;10.40;67.30;;;;;;5021952;28;87237;-41
2022/10/06 09:05:11;;;;;;;;;;;10.40;67.30;;;;;;5021942;28;88008;-40
2022/10/06 09:07:57;;;;;;;;;;;10.40;67.30;;;;;;5022024;28;86937;-40
2022/10/06 09:10:31;;;;;;;;;;;10.50;67.40;;;;;;5024796;28;86878;-40
2022/10/06 09:13:05;;;;;;;;;;;10.40;67.50;;;;;;5022538;28;86367;-41
2022/10/06 09:15:43;;;;;;;;;;;10.40;67.30;;;;;;5022264;28;87012;-40
2022/10/06 09:18:21;;;;;;;;;;;10.50;67.20;;;;;;5021716;28;88096;-41
2022/10/06 09:23:49;;;;;;;;;;;10.50;67.30;;;;;;5022034;28;87603;-41
2022/10/06 09:26:14;;;;;;;;;;;10.50;67.30;;;;;;5021532;28;87247;-41
2022/10/06 09:28:40;;;;;;;;;;;10.60;67.20;;;;;;5021991;28;87084;-41
2022/10/06 09:31:22;;;;;;;;;;;10.50;67.30;;;;;;5024649;28;86918;-41
2022/10/06 09:33:53;;;;;;;;;;;10.60;67.30;;;;;;5021747;28;87009;-41
2022/10/06 09:36:19;;;;;;;;;;;10.60;67.40;;;;;;5024339;28;87392;-41
2022/10/06 09:38:44;;;;;;;;;;;10.60;67.40;;;;;;5025300;28;87132;-41
2022/10/06 09:41:12;;;;;;;;;;;10.60;67.40;;;;;;5025346;28;87024;-41
2022/10/06 09:43:38;;;;;;;;;;;10.60;67.40;;;;;;5025224;28;87367;-40
2022/10/06 09:46:20;;;;;;;;;;;10.70;67.40;;;;;;5024088;28;88037;-40
2022/10/06 09:48:45;;;;;;;;;;;10.70;67.40;;;;;;5024950;28;87076;-41
2022/10/06 09:51:12;;;;;;;;;;;10.70;67.50;;;;;;5024986;28;87691;-41
2022/10/06 09:53:38;;;;;;;;;;;10.80;67.40;;;;;;5027709;28;88024;-41
2022/10/06 09:56:10;;;;;;;;;;;10.70;67.40;;;;;;5025224;28;87637;-41
2022/10/06 09:58:38;;;;;;;;;;;10.80;67.30;;;;;;5024561;28;88147;-41
2022/10/06 10:01:08;;;;;;;;;;;10.70;67.30;;;;;;5024886;28;87470;-41
2022/10/06 10:03:40;;;;;;;;;;;10.70;67.40;;;;;;5025473;28;87401;-41
2022/10/06 10:06:07;;;;;;;;;;;10.70;67.50;;;;;;5024494;28;88134;-41
2022/10/06 10:08:33;;;;;;;;;;;10.80;67.50;;;;;;5024643;28;86984;-41
2022/10/06 10:12:23;;;;;;;;;;;10.80;67.60;;;;;;5024182;28;88276;-41
2022/10/06 10:13:57;;;;;;;;;;;10.80;67.50;;;;;;5023709;28;88865;-40
2022/10/06 10:16:33;;;;;;;;;;;10.80;67.60;;;;;;5027443;28;87113;-41
2022/10/06 10:18:59;;;;;;;;;;;10.80;68.10;;;;;;5024416;28;87958;-40
2022/10/06 10:21:30;;;;;;;;;;;10.80;67.70;;;;;;5024429;28;87072;-41
2022/10/06 10:23:57;;;;;;;;;;;10.80;67.50;;;;;;5024492;28;87086;-41
2022/10/06 10:26:44;;;;;;;;;;;10.80;67.40;;;;;;5024125;28;88747;-41
2022/10/06 10:29:13;;;;;;;;;;;10.90;67.60;;;;;;5025118;28;86308;-40
2022/10/06 10:31:39;;;;;;;;;;;10.90;67.60;;;;;;5024474;28;86895;-40
2022/10/06 10:34:23;;;;;;;;;;;10.90;67.60;;;;;;5024089;28;88052;-41
2022/10/06 10:36:52;;;;;;;;;;;10.90;67.50;;;;;;5023456;28;88172;-41
2022/10/06 10:39:37;;;;;;;;;;;11.00;67.50;;;;;;5026603;28;88223;-41
2022/10/06 10:42:08;;;;;;;;;;;11.00;67.50;;;;;;5023909;28;87046;-41
2022/10/06 10:44:36;;;;;;;;;;;11.00;67.40;;;;;;5024260;28;87174;-41
2022/10/06 10:47:10;;;;;;;;;;;11.00;67.50;;;;;;5022683;28;87829;-41
2022/10/06 10:49:36;;;;;;;;;;;11.10;67.40;;;;;;5023802;28;87041;-41
2022/10/06 10:52:07;;;;;;;;;;;11.10;67.20;;;;;;5024290;28;87213;-40
2022/10/06 10:54:41;;;;;;;;;;;11.10;67.30;;;;;;5024320;28;86550;-40
2022/10/06 10:57:12;;;;;;;;;;;11.10;67.30;;;;;;5023936;28;87164;-40
2022/10/06 10:59:58;;;;;;;;;;;11.10;67.30;;;;;;5023711;28;88633;-40
2022/10/06 11:02:24;;;;;;;;;;;11.10;67.30;;;;;;5025771;28;88141;-40
2022/10/06 11:04:51;;;;;;;;;;;11.20;67.10;;;;;;5023860;28;87547;-41
2022/10/06 11:07:23;;;;;;;;;;;11.30;67.30;;;;;;5023556;28;88122;-42
2022/10/06 11:09:58;;;;;;;;;;;11.20;67.30;;;;;;5023940;28;87034;-40
2022/10/06 11:12:42;;;;;;;;;;;11.30;66.90;;;;;;5023730;28;87207;-41
2022/10/06 11:15:26;;;;;;;;;;;11.30;66.80;;;;;;5023287;28;87973;-41
2022/10/06 11:17:54;;;;;;;;;;;11.40;66.70;;;;;;5023776;28;87132;-41
2022/10/06 11:20:24;;;;;;;;;;;11.40;66.70;;;;;;5024120;28;87428;-40
2022/10/06 11:23:08;;;;;;;;;;;11.40;67.00;;;;;;5022565;28;88897;-41
2022/10/06 11:25:45;;;;;;;;;;;11.40;67.00;;;;;;5026454;28;86891;-40
2022/10/06 11:28:16;;;;;;;;;;;11.40;66.70;;;;;;5022558;28;89094;-41
2022/10/06 11:31:17;;;;;;;;;;;11.50;66.60;;;;;;5023570;28;87040;-40
2022/10/06 11:33:46;;;;;;;;;;;11.50;67.00;;;;;;5023837;28;87501;-41
2022/10/06 11:36:14;;;;;;;;;;;11.50;66.70;;;;;;5022990;28;88006;-41
2022/10/06 11:38:55;;;;;;;;;;;11.50;66.90;;;;;;5023279;28;86989;-41
2022/10/06 11:41:30;;;;;;;;;;;11.50;66.90;;;;;;5023509;28;87349;-41
2022/10/06 11:44:03;;;;;;;;;;;11.60;66.70;;;;;;5022748;28;87956;-40
2022/10/06 11:46:28;;;;;;;;;;;11.60;66.80;;;;;;5026847;28;86481;-41
2022/10/06 11:49:13;;;;;;;;;;;11.60;67.00;;;;;;5023160;28;88138;-41
2022/10/06 11:51:39;;;;;;;;;;;11.70;66.40;;;;;;5022729;28;89571;-40
2022/10/06 11:54:24;;;;;;;;;;;11.70;66.10;;;;;;5022540;28;88033;-41
2022/10/06 11:56:50;;;;;;;;;;;11.70;66.30;;;;;;5022521;28;88707;-41
2022/10/06 11:59:25;;;;;;;;;;;11.70;65.90;;;;;;5022934;28;87101;-40
2022/10/06 12:01:51;;;;;;;;;;;11.70;66.20;;;;;;5023080;28;87469;-41
2022/10/06 12:04:17;;;;;;;;;;;11.70;66.20;;;;;;5022608;28;87866;-41
2022/10/06 12:06:46;;;;;;;;;;;11.80;66.50;;;;;;5022838;28;87209;-41
2022/10/06 12:09:24;;;;;;;;;;;11.80;66.40;;;;;;5025377;28;87371;-41
2022/10/06 12:11:53;;;;;;;;;;;11.80;66.40;;;;;;5023516;28;86363;-41
2022/10/06 12:14:25;;;;;;;;;;;11.80;66.50;;;;;;5023047;28;86968;-40
2022/10/06 12:16:53;;;;;;;;;;;11.90;65.90;;;;;;5022443;28;88192;-41
2022/10/06 12:19:18;;;;;;;;;;;11.90;65.90;;;;;;5021888;28;87897;-41
2022/10/06 12:21:47;;;;;;;;;;;11.90;66.10;;;;;;5022690;28;88431;-41
2022/10/06 12:24:25;;;;;;;;;;;12.00;65.70;;;;;;5022263;28;88243;-41
2022/10/06 12:26:50;;;;;;;;;;;12.00;65.60;;;;;;5022648;28;87110;-41
2022/10/06 12:29:35;;;;;;;;;;;12.00;65.90;;;;;;5022587;28;87488;-40
2022/10/06 12:32:16;;;;;;;;;;;12.00;65.60;;;;;;5025082;28;87819;-41
2022/10/06 12:34:51;;;;;;;;;;;12.00;66.10;;;;;;5022493;28;87490;-41
2022/10/06 12:37:19;;;;;;;;;;;12.00;66.10;;;;;;5022534;28;87197;-41
2022/10/06 12:39:45;;;;;;;;;;;12.10;66.20;;;;;;5022463;28;87128;-41
2022/10/06 12:42:18;;;;;;;;;;;12.10;65.70;;;;;;5022565;28;87450;-40
2022/10/06 12:44:48;;;;;;;;;;;12.10;66.90;;;;;;5021303;28;90319;-40
2022/10/06 12:47:14;;;;;;;;;;;12.10;66.10;;;;;;5022298;28;87169;-41
2022/10/06 12:49:39;;;;;;;;;;;12.20;65.70;;;;;;5021843;28;87577;-41
2022/10/06 12:52:07;;;;;;;;;;;12.20;65.70;;;;;;5022173;28;88195;-40
2022/10/06 12:54:37;;;;;;;;;;;12.20;65.80;;;;;;5024966;28;87142;-41
2022/10/06 12:57:12;;;;;;;;;;;12.30;65.90;;;;;;5021738;28;88211;-40
2022/10/06 12:59:39;;;;;;;;;;;12.30;65.90;;;;;;5022472;28;86939;-41
2022/10/06 13:02:09;;;;;;;;;;;12.30;66.20;;;;;;5022743;28;86563;-41
2022/10/06 13:04:41;;;;;;;;;;;12.30;66.10;;;;;;5022138;28;88072;-41
2022/10/06 13:07:30;;;;;;;;;;;12.30;65.70;;;;;;5022141;28;87184;-41
2022/10/06 13:10:13;;;;;;;;;;;12.40;65.90;;;;;;5022030;28;87933;-40
2022/10/06 13:12:46;;;;;;;;;;;12.40;65.80;;;;;;5025529;28;87722;-41
2022/10/06 13:15:11;;;;;;;;;;;12.40;65.10;;;;;;5025803;28;87005;-41
2022/10/06 13:17:43;;;;;;;;;;;12.40;65.60;;;;;;5028212;28;87564;-41
2022/10/06 13:20:27;;;;;;;;;;;12.40;64.70;;;;;;5024169;28;87118;-41
2022/10/06 13:22:56;;;;;;;;;;;12.50;65.70;;;;;;5025329;28;87569;-40
2022/10/06 13:25:22;;;;;;;;;;;12.50;65.60;;;;;;5025075;28;87990;-41
2022/10/06 13:27:50;;;;;;;;;;;12.50;65.90;;;;;;5025892;28;86159;-41
2022/10/06 13:30:20;;;;;;;;;;;12.50;66.00;;;;;;5025456;28;86943;-41
2022/10/06 13:32:50;;;;;;;;;;;12.60;66.20;;;;;;5024896;28;88151;-41
2022/10/06 13:35:16;;;;;;;;;;;12.60;66.10;;;;;;5024427;28;87998;-40
2022/10/06 13:37:41;;;;;;;;;;;12.60;66.10;;;;;;5028105;28;88549;-41
2022/10/06 13:40:14;;;;;;;;;;;12.60;66.10;;;;;;5025358;28;87159;-41
2022/10/06 13:42:40;;;;;;;;;;;12.60;65.90;;;;;;5025194;28;87402;-40
2022/10/06 13:45:13;;;;;;;;;;;12.60;66.00;;;;;;5024744;28;87222;-41
2022/10/06 13:47:39;;;;;;;;;;;12.70;65.40;;;;;;5025443;28;87026;-41
2022/10/06 13:50:12;;;;;;;;;;;12.70;65.20;;;;;;5024851;28;87458;-40
2022/10/06 13:52:39;;;;;;;;;;;12.70;65.70;;;;;;5025376;28;87379;-41
2022/10/06 13:55:13;;;;;;;;;;;12.70;65.90;;;;;;5025284;28;87339;-41
2022/10/06 13:57:40;;;;;;;;;;;12.80;65.60;;;;;;5025067;28;87607;-41
2022/10/06 14:00:18;;;;;;;;;;;12.80;65.30;;;;;;5026911;28;88144;-40
2022/10/06 14:02:45;;;;;;;;;;;12.70;65.70;;;;;;5024846;28;88343;-41
2022/10/06 14:05:25;;;;;;;;;;;12.80;65.50;;;;;;5024470;28;88236;-41
2022/10/06 14:07:54;;;;;;;;;;;12.80;65.60;;;;;;5024572;28;87043;-41
2022/10/06 14:10:21;;;;;;;;;;;12.90;65.50;;;;;;5024640;28;87705;-41
2022/10/06 14:12:47;;;;;;;;;;;12.80;65.50;;;;;;5024280;28;88004;-41
2022/10/06 14:15:24;;;;;;;;;;;12.90;65.50;;;;;;5024805;28;87287;-41
2022/10/06 14:17:57;;;;;;;;;;;12.90;65.70;;;;;;5025151;28;87161;-41
2022/10/06 14:20:40;;;;;;;;;;;12.90;65.60;;;;;;5024186;28;87955;-41
2022/10/06 14:23:24;;;;;;;;;;;12.90;65.30;;;;;;5027294;28;87089;-41
2022/10/06 14:25:49;;;;;;;;;;;12.90;65.30;;;;;;5023788;28;89095;-41
2022/10/06 14:28:15;;;;;;;;;;;12.90;64.90;;;;;;5024503;28;87082;-41
2022/10/06 14:30:40;;;;;;;;;;;13.00;65.20;;;;;;5024641;28;87424;-41
2022/10/06 14:33:06;;;;;;;;;;;13.00;65.50;;;;;;5024054;28;88142;-41
2022/10/06 14:35:32;;;;;;;;;;;13.00;65.40;;;;;;5024238;28;87002;-41
2022/10/06 14:37:57;;;;;;;;;;;13.00;65.10;;;;;;5024274;28;87209;-41
2022/10/06 14:40:23;;;;;;;;;;;13.10;65.40;;;;;;5024049;28;88046;-41